Citta Di Savona — IMDS — position and weather

sailwx.info

Track history (hours):
 
Tides and Currents Weather Stations Pressure Air Temp Water Temp Dewpoint Dewpoint Depression Visibility Wind Speed Wind Dir Waves Ship Positions

Citta Di Savona

Last reported at 2015-May-27 03:33 UTC. Time now 2015-May-27 03:51 UTC.
Position N 44°18' E 008°29'.

Length 31 m; draft 4.2 m.

Type: Tug. MMSI: 247402000.

Date/timePositionNaut miles runAvg speedWind from/ knotsBaromVisibWave heightAir tempDewpointWater temp
2015-May-27 03:33N 44°18' E 008°29'2 1.7
2015-May-27 02:33N 44°16' E 008°28'2 2.1
2015-May-27 01:27N 44°19' E 008°29'0 0.0
2015-May-26 16:32N 44°19' E 008°30'0 0.1
2015-May-26 11:22N 44°18' E 008°29'1 0.7
2015-May-26 10:18N 44°19' E 008°30'0 0.0
2015-May-26 09:31N 44°19' E 008°30'0 0.0
2015-May-26 08:23N 44°19' E 008°30'3 3.2
2015-May-26 07:30N 44°17' E 008°27'0 0.0
2015-May-26 06:33N 44°17' E 008°27'1 1.1
2015-May-26 05:29N 44°16' E 008°28'3 2.8
2015-May-26 04:20N 44°19' E 008°29'0 0.0
2015-May-25 12:08N 44°18' E 008°29'3 4.5
2015-May-25 11:31N 44°16' E 008°27'3 2.5
2015-May-25 10:14N 44°19' E 008°30'1 1.1
2015-May-25 09:32N 44°19' E 008°31'1 0.1
2015-May-24 20:21N 44°18' E 008°29'0 0.0
2015-May-24 19:33N 44°18' E 008°29'0 0.0
2015-May-24 18:33N 44°18' E 008°29'0 0.0
2015-May-24 17:33N 44°18' E 008°29'1 1.0
2015-May-24 16:33N 44°19' E 008°30'0 0.4
2015-May-24 15:33N 44°19' E 008°31'2 0.1
2015-May-23 16:32N 44°17' E 008°29'2 0.4
2015-May-23 11:21N 44°16' E 008°27'0 0.2
2015-May-23 10:33N 44°16' E 008°27'3 0.1
2015-May-22 05:28N 44°19' E 008°29'1 0.7
2015-May-22 04:33N 44°19' E 008°30'0 0.0
2015-May-21 06:28N 44°19' E 008°31'1 0.8
2015-May-21 05:10N 44°19' E 008°29'1 1.0
2015-May-21 04:30N 44°19' E 008°30'0 0.0
2015-May-20 09:32N 44°19' E 008°30'0 0.2
2015-May-20 08:10N 44°19' E 008°30'0 0.2
2015-May-20 07:20N 44°19' E 008°30'1 0.0
2015-May-19 01:04N 44°18' E 008°29'0 0.0
2015-May-18 23:27N 44°18' E 008°29'0 0.0
2015-May-18 16:32N 44°18' E 008°29'0 0.0
2015-May-18 15:26N 44°18' E 008°29'0 0.0
2015-May-18 14:32N 44°18' E 008°29'0 0.0
2015-May-17 16:15N 44°19' E 008°29'2 3.3
2015-May-17 15:32N 44°17' E 008°28'1 0.8
2015-May-17 14:31N 44°17' E 008°29'  
Track history (hours):
 
Tides and Currents Weather Stations Pressure Air Temp Water Temp Dewpoint Dewpoint Depression Visibility Wind Speed Wind Dir Waves Ship Positions

Citta Di Savona

Last reported at 2015-May-27 03:33 UTC. Time now 2015-May-27 03:51 UTC.
Position N 44°18' E 008°29'.

Length 31 m; draft 4.2 m.

Type: Tug. MMSI: 247402000.

Date/timePositionNaut miles runAvg speedWind from/ knotsBaromVisibWave heightAir tempDewpointWater temp
2015-May-27 03:33N 44°18' E 008°29'2 1.7
2015-May-27 02:33N 44°16' E 008°28'2 2.1
2015-May-27 01:27N 44°19' E 008°29'0 0.0
2015-May-26 16:32N 44°19' E 008°30'0 0.1
2015-May-26 11:22N 44°18' E 008°29'1 0.7
2015-May-26 10:18N 44°19' E 008°30'0 0.0
2015-May-26 09:31N 44°19' E 008°30'0 0.0
2015-May-26 08:23N 44°19' E 008°30'3 3.2
2015-May-26 07:30N 44°17' E 008°27'0 0.0
2015-May-26 06:33N 44°17' E 008°27'1 1.1
2015-May-26 05:29N 44°16' E 008°28'3 2.8
2015-May-26 04:20N 44°19' E 008°29'0 0.0
2015-May-25 12:08N 44°18' E 008°29'3 4.5
2015-May-25 11:31N 44°16' E 008°27'3 2.5
2015-May-25 10:14N 44°19' E 008°30'1 1.1
2015-May-25 09:32N 44°19' E 008°31'1 0.1
2015-May-24 20:21N 44°18' E 008°29'0 0.0
2015-May-24 19:33N 44°18' E 008°29'0 0.0
2015-May-24 18:33N 44°18' E 008°29'0 0.0
2015-May-24 17:33N 44°18' E 008°29'1 1.0
2015-May-24 16:33N 44°19' E 008°30'0 0.4
2015-May-24 15:33N 44°19' E 008°31'2 0.1
2015-May-23 16:32N 44°17' E 008°29'2 0.4
2015-May-23 11:21N 44°16' E 008°27'0 0.2
2015-May-23 10:33N 44°16' E 008°27'3 0.1
2015-May-22 05:28N 44°19' E 008°29'1 0.7
2015-May-22 04:33N 44°19' E 008°30'0 0.0
2015-May-21 06:28N 44°19' E 008°31'1 0.8
2015-May-21 05:10N 44°19' E 008°29'1 1.0
2015-May-21 04:30N 44°19' E 008°30'0 0.0
2015-May-20 09:32N 44°19' E 008°30'0 0.2
2015-May-20 08:10N 44°19' E 008°30'0 0.2
2015-May-20 07:20N 44°19' E 008°30'1 0.0
2015-May-19 01:04N 44°18' E 008°29'0 0.0
2015-May-18 23:27N 44°18' E 008°29'0 0.0
2015-May-18 16:32N 44°18' E 008°29'0 0.0
2015-May-18 15:26N 44°18' E 008°29'0 0.0
2015-May-18 14:32N 44°18' E 008°29'0 0.0
2015-May-17 16:15N 44°19' E 008°29'2 3.3
2015-May-17 15:32N 44°17' E 008°28'1 0.8
2015-May-17 14:31N 44°17' E 008°29'  

Dump ship's entire track history